This is the latest recevied weather packets stored in our database for station/object SP5IZJ-2. If no packets are shown the sender has not sent any weather packets the latest 1 day(s).
| Time | Temp. | Humidity | Pressure | Rain* | Wind** | Luminosity | Snow |
|---|---|---|---|---|---|---|---|
| 1777980535 | 29.44° C | 32% | 999.5 hPa | 0 mm | 1.34 m/s, 0° | - | - |
| 1777979276 | 32.22° C | 31% | 999.8 hPa | 0 mm | 0 m/s | - | - |
| 1777978856 | 31.11° C | 33% | 1000 hPa | 0 mm | 0 m/s | - | - |
| 1777978018 | 30.56° C | 32% | 1000.3 hPa | 0 mm | 0 m/s | - | - |
| 1777976757 | 30° C | 34% | 1000.4 hPa | 0 mm | 0.45 m/s, 0° | - | - |
| 1777975917 | 31.67° C | 34% | 1000.7 hPa | 0 mm | 0.45 m/s, 0° | - | - |
| 1777975497 | 31.11° C | 34% | 1000.8 hPa | 0 mm | 0 m/s | - | - |
| 1777974657 | 31.11° C | 33% | 1001 hPa | 0 mm | 0.45 m/s, 225° | - | - |
| 1777974238 | 31.11° C | 34% | 1001.2 hPa | 0 mm | 0 m/s | - | - |
| 1777973818 | 30° C | 36% | 1001.1 hPa | 0 mm | 0 m/s | - | - |
| 1777969202 | 28.33° C | 39% | 1001.9 hPa | 0 mm | 0 m/s | - | - |
| 1777968360 | 28.33° C | 43% | 1001.7 hPa | 0 mm | 0 m/s | - | - |
| 1777967940 | 26.67° C | 43% | 1001.7 hPa | 0 mm | 0 m/s | - | - |
| 1777966681 | 24.44° C | 47% | 1001.8 hPa | 0 mm | 0.45 m/s, 225° | - | - |
| 1777966261 | 24.44° C | 47% | 1001.9 hPa | 0 mm | 0 m/s | - | - |
| 1777965841 | 24.44° C | 48% | 1002 hPa | 0 mm | 0.45 m/s, 225° | - | - |
| 1777963322 | 21.11° C | 57% | 1002.6 hPa | 0 mm | 0 m/s | - | - |
| 1777961643 | 21.11° C | 57% | 1002.6 hPa | 0 mm | 0.45 m/s, 225° | - | - |
| 1777961223 | 20.56° C | 56% | 1002.6 hPa | 0 mm | 0.89 m/s, 225° | - | - |
| 1777959964 | 21.67° C | 58% | 1002.4 hPa | 0 mm | 0.45 m/s, 225° | - | - |
| 1777959124 | 20.56° C | 63% | 1002.6 hPa | 0 mm | 0 m/s | - | - |
| 1777958284 | 17.22° C | 72% | 1002.7 hPa | 0 mm | 0 m/s | - | - |
| 1777957875 | 15.56° C | 74% | 1002.7 hPa | 0 mm | 0 m/s | - | - |
| 1777957445 | 15° C | 72% | 1002.7 hPa | 0 mm | 0 m/s | - | - |
| 1777957029 | 15° C | 72% | 1002.7 hPa | 0 mm | 0 m/s | - | - |
* Rain latest hour (hover to see other rain measurements)
** Current wind speed in m/s (hover to see current wind gust speed)